createdAt,value
2017-09-07T00:00:03.923Z,1003
2017-09-07T00:01:06.316Z,1003
2017-09-07T00:02:08.711Z,1003.1
2017-09-07T00:03:11.101Z,1003
2017-09-07T00:04:13.494Z,1003
2017-09-07T00:05:15.888Z,1003.1
2017-09-07T00:06:18.280Z,1003.1
2017-09-07T00:07:20.671Z,1003
2017-09-07T00:08:23.062Z,1003
2017-09-07T00:09:25.449Z,1003.1
2017-09-07T00:10:27.851Z,1003.1
2017-09-07T00:11:30.245Z,1003.1
2017-09-07T00:12:32.637Z,1003
2017-09-07T00:13:35.364Z,1003
2017-09-07T00:14:37.764Z,1003.1
2017-09-07T00:15:40.158Z,1003.1
2017-09-07T00:16:42.550Z,1003.1
2017-09-07T00:17:44.940Z,1003.1
2017-09-07T00:18:47.339Z,1003.1
2017-09-07T00:19:49.721Z,1003.1
2017-09-07T00:20:52.125Z,1003.1
2017-09-07T00:21:54.530Z,1003.1
2017-09-07T00:22:56.916Z,1003.1
2017-09-07T00:23:59.308Z,1003.1
2017-09-07T00:25:01.706Z,1003.1
2017-09-07T00:26:04.445Z,1003.1
2017-09-07T00:27:06.836Z,1003.1
2017-09-07T00:28:09.226Z,1003.1
2017-09-07T00:29:11.625Z,1003.1
2017-09-07T00:30:14.019Z,1003.2
2017-09-07T00:31:16.409Z,1003.1
2017-09-07T00:32:18.802Z,1003.1
2017-09-07T00:33:21.196Z,1003.1
2017-09-07T00:34:23.580Z,1003.1
2017-09-07T00:35:25.980Z,1003.1
2017-09-07T00:36:28.363Z,1003.1
2017-09-07T00:37:30.760Z,1003.1
2017-09-07T00:38:33.148Z,1003.1
2017-09-07T00:39:35.543Z,1003
2017-09-07T00:40:37.935Z,1003.1
2017-09-07T00:41:40.330Z,1003.1
2017-09-07T00:42:42.721Z,1003.1
2017-09-07T00:43:45.108Z,1003
2017-09-07T00:44:47.498Z,1003.1
2017-09-07T00:45:49.903Z,1003.1
2017-09-07T00:46:52.285Z,1003
2017-09-07T00:47:55.017Z,1003
2017-09-07T00:48:57.418Z,1003.1
2017-09-07T00:50:00.142Z,1003.1
2017-09-07T00:51:02.535Z,1003
2017-09-07T00:52:04.932Z,1003.1
2017-09-07T00:53:07.308Z,1003.1
2017-09-07T00:54:09.707Z,1003
2017-09-07T00:55:12.106Z,1003
2017-09-07T00:56:14.484Z,1003.1
2017-09-07T00:57:16.875Z,1003
2017-09-07T00:58:19.261Z,1003.1
2017-09-07T00:59:21.649Z,1003.1
2017-09-07T01:00:24.053Z,1003.1
2017-09-07T01:01:26.440Z,1003.1
2017-09-07T01:02:28.837Z,1003.1
2017-09-07T01:03:31.238Z,1003.1
2017-09-07T01:04:33.626Z,1003.1
2017-09-07T01:05:36.015Z,1003.1
2017-09-07T01:06:38.743Z,1003.1
2017-09-07T01:07:41.127Z,1003
2017-09-07T01:08:43.519Z,1003
2017-09-07T01:09:45.913Z,1003.1
2017-09-07T01:10:48.305Z,1003.1
2017-09-07T01:11:50.696Z,1003
2017-09-07T01:12:53.091Z,1003
2017-09-07T01:13:55.483Z,1003
2017-09-07T01:14:57.869Z,1002.9
2017-09-07T01:16:00.257Z,1002.9
2017-09-07T01:17:02.651Z,1003
2017-09-07T01:18:05.037Z,1003
2017-09-07T01:19:07.434Z,1003
2017-09-07T01:20:09.830Z,1003
2017-09-07T01:21:12.222Z,1003.1
2017-09-07T01:22:14.973Z,1003
2017-09-07T01:23:17.365Z,1003.1
2017-09-07T01:24:19.755Z,1003.1
2017-09-07T01:25:22.144Z,1003.1
2017-09-07T01:26:24.535Z,1003.1
2017-09-07T01:27:26.930Z,1003.1
2017-09-07T01:28:29.317Z,1003.1
2017-09-07T01:29:31.707Z,1003.1
2017-09-07T01:30:34.099Z,1003.1
2017-09-07T01:31:36.491Z,1003.1
2017-09-07T01:32:38.881Z,1003.1
2017-09-07T01:33:41.275Z,1003.1
2017-09-07T01:34:43.669Z,1003.1
2017-09-07T01:35:46.058Z,1003.1
2017-09-07T01:36:48.450Z,1003
2017-09-07T01:37:50.841Z,1003.1
2017-09-07T01:38:53.240Z,1003.1
2017-09-07T01:39:55.634Z,1003.1
2017-09-07T01:40:58.023Z,1003.2
2017-09-07T01:42:00.417Z,1003.2
2017-09-07T01:43:02.808Z,1003.1
2017-09-07T01:44:05.192Z,1003.1
2017-09-07T01:45:07.597Z,1003.1
2017-09-07T01:46:09.994Z,1003.1
2017-09-07T01:47:12.385Z,1003.2
2017-09-07T01:48:14.784Z,1003.1
2017-09-07T01:49:17.183Z,1003.1
2017-09-07T01:50:19.573Z,1003.1
2017-09-07T01:51:21.975Z,1003.1
2017-09-07T01:52:24.354Z,1003.1
2017-09-07T01:53:26.741Z,1003
2017-09-07T01:54:29.130Z,1003
2017-09-07T01:55:31.522Z,1003.1
2017-09-07T01:56:33.913Z,1003
2017-09-07T01:57:36.302Z,1003
2017-09-07T01:58:38.689Z,1003
2017-09-07T01:59:41.089Z,1003
2017-09-07T02:00:43.488Z,1003
2017-09-07T02:01:45.885Z,1003
2017-09-07T02:02:48.271Z,1003
2017-09-07T02:03:50.663Z,1003
2017-09-07T02:04:53.055Z,1003
2017-09-07T02:05:55.451Z,1003
2017-09-07T02:06:57.837Z,1002.9
2017-09-07T02:08:00.232Z,1003
2017-09-07T02:09:02.629Z,1002.9
2017-09-07T02:10:05.020Z,1003
2017-09-07T02:11:07.411Z,1002.9
2017-09-07T02:12:09.806Z,1002.9
2017-09-07T02:13:12.189Z,1002.9
2017-09-07T02:14:14.584Z,1002.9
2017-09-07T02:15:16.974Z,1002.9
2017-09-07T02:16:19.373Z,1002.9
2017-09-07T02:17:21.767Z,1002.9
2017-09-07T02:18:24.153Z,1002.8
2017-09-07T02:19:26.885Z,1002.9
2017-09-07T02:20:29.281Z,1002.8
2017-09-07T02:21:31.672Z,1002.9
2017-09-07T02:22:34.065Z,1002.8
2017-09-07T02:23:36.449Z,1002.8
2017-09-07T02:24:38.840Z,1002.8
2017-09-07T02:25:41.246Z,1002.8
2017-09-07T02:26:43.639Z,1002.9
2017-09-07T02:27:46.023Z,1002.8
2017-09-07T02:28:48.411Z,1002.8
2017-09-07T02:29:50.796Z,1002.8
2017-09-07T02:30:53.201Z,1002.8
2017-09-07T02:31:55.592Z,1002.8
2017-09-07T02:32:57.975Z,1002.8
2017-09-07T02:34:00.371Z,1002.8
2017-09-07T02:35:02.768Z,1002.8
2017-09-07T02:36:05.166Z,1002.8
2017-09-07T02:37:07.564Z,1002.8
2017-09-07T02:38:09.945Z,1002.9
2017-09-07T02:39:12.338Z,1002.9
2017-09-07T02:40:14.738Z,1002.8
2017-09-07T02:41:17.115Z,1002.8
2017-09-07T02:42:19.521Z,1002.8
2017-09-07T02:43:21.912Z,1002.8
2017-09-07T02:44:24.303Z,1002.8
2017-09-07T02:45:26.693Z,1002.8
2017-09-07T02:46:29.078Z,1002.8
2017-09-07T02:47:31.473Z,1002.8
2017-09-07T02:48:33.863Z,1002.8
2017-09-07T02:49:36.250Z,1002.8
2017-09-07T02:50:38.641Z,1002.8
2017-09-07T02:51:41.037Z,1002.8
2017-09-07T02:52:43.432Z,1002.8
2017-09-07T02:53:45.828Z,1002.8
2017-09-07T02:54:48.220Z,1002.8
2017-09-07T02:55:50.611Z,1002.7
2017-09-07T02:56:53.011Z,1002.7
2017-09-07T02:57:55.399Z,1002.7
2017-09-07T02:58:57.789Z,1002.7
2017-09-07T03:00:00.182Z,1002.8
2017-09-07T03:01:02.570Z,1002.8
2017-09-07T03:02:04.968Z,1002.7
2017-09-07T03:03:07.366Z,1002.7
2017-09-07T03:04:10.081Z,1002.7
2017-09-07T03:05:12.472Z,1002.7
2017-09-07T03:06:14.871Z,1002.8
2017-09-07T03:07:17.258Z,1002.8
2017-09-07T03:08:19.652Z,1002.7
2017-09-07T03:09:22.039Z,1002.7
2017-09-07T03:10:24.428Z,1002.7
2017-09-07T03:11:26.819Z,1002.6
2017-09-07T03:12:29.210Z,1002.7
2017-09-07T03:13:31.612Z,1002.6
2017-09-07T03:14:33.998Z,1002.7
2017-09-07T03:15:36.384Z,1002.6
2017-09-07T03:16:38.772Z,1002.6
2017-09-07T03:17:41.168Z,1002.7
2017-09-07T03:18:43.567Z,1002.7
2017-09-07T03:19:45.952Z,1002.7
2017-09-07T03:20:48.341Z,1002.7
2017-09-07T03:21:50.740Z,1002.7
2017-09-07T03:22:53.132Z,1002.7
2017-09-07T03:23:55.532Z,1002.7
2017-09-07T03:24:57.919Z,1002.7
2017-09-07T03:26:00.310Z,1002.7
2017-09-07T03:27:03.032Z,1002.8
2017-09-07T03:28:06.109Z,1002.6
2017-09-07T03:29:08.491Z,1002.7
2017-09-07T03:30:10.883Z,1002.8
2017-09-07T03:31:13.273Z,1002.8
2017-09-07T03:32:15.674Z,1002.8
2017-09-07T03:33:18.067Z,1002.8
2017-09-07T03:34:20.459Z,1002.8
2017-09-07T03:35:22.848Z,1002.8
2017-09-07T03:36:25.241Z,1002.8
2017-09-07T03:37:27.637Z,1002.8
2017-09-07T03:38:30.033Z,1002.8
2017-09-07T03:39:32.413Z,1002.7
2017-09-07T03:40:34.793Z,1002.8
2017-09-07T03:41:37.189Z,1002.8
2017-09-07T03:42:39.575Z,1002.7
2017-09-07T03:43:41.969Z,1002.7
2017-09-07T03:44:44.361Z,1002.7
2017-09-07T03:45:47.091Z,1002.8
2017-09-07T03:46:49.475Z,1002.7
2017-09-07T03:47:51.875Z,1002.7
2017-09-07T03:48:54.263Z,1002.7
2017-09-07T03:49:56.668Z,1002.7
2017-09-07T03:50:59.397Z,1002.7
2017-09-07T03:52:01.783Z,1002.7
2017-09-07T03:53:04.182Z,1002.6
2017-09-07T03:54:06.579Z,1002.7
2017-09-07T03:55:09.318Z,1002.7
2017-09-07T03:56:11.710Z,1002.7
2017-09-07T03:57:14.102Z,1002.7
2017-09-07T03:58:16.493Z,1002.7
2017-09-07T03:59:18.894Z,1002.8
2017-09-07T04:00:21.628Z,1002.7
2017-09-07T04:01:24.011Z,1002.7
2017-09-07T04:02:26.416Z,1002.7
2017-09-07T04:03:28.793Z,1002.6
2017-09-07T04:04:31.191Z,1002.7
2017-09-07T04:05:33.579Z,1002.7
2017-09-07T04:06:36.306Z,1002.6
2017-09-07T04:07:38.703Z,1002.7
2017-09-07T04:08:41.097Z,1002.7
2017-09-07T04:09:43.491Z,1002.6
2017-09-07T04:10:45.886Z,1002.6
2017-09-07T04:11:48.274Z,1002.6
2017-09-07T04:12:50.679Z,1002.6
2017-09-07T04:13:53.070Z,1002.7
2017-09-07T04:14:55.456Z,1002.7
2017-09-07T04:15:57.851Z,1002.7
2017-09-07T04:17:00.238Z,1002.6
2017-09-07T04:18:02.631Z,1002.6
2017-09-07T04:19:05.032Z,1002.6
2017-09-07T04:20:07.417Z,1002.6
2017-09-07T04:21:10.163Z,1002.6
2017-09-07T04:22:12.564Z,1002.6
2017-09-07T04:23:14.953Z,1002.6
2017-09-07T04:24:17.337Z,1002.7
2017-09-07T04:25:19.737Z,1002.7
2017-09-07T04:26:22.128Z,1002.7
2017-09-07T04:27:24.529Z,1002.7
2017-09-07T04:28:26.925Z,1002.7
2017-09-07T04:29:29.312Z,1002.6
2017-09-07T04:30:31.703Z,1002.7
2017-09-07T04:31:34.117Z,1002.7
2017-09-07T04:32:36.495Z,1002.7
2017-09-07T04:33:39.230Z,1002.6
2017-09-07T04:34:41.615Z,1002.7
2017-09-07T04:35:44.004Z,1002.7
2017-09-07T04:36:46.409Z,1002.7
2017-09-07T04:37:48.799Z,1002.6
2017-09-07T04:38:51.193Z,1002.6
2017-09-07T04:39:53.593Z,1002.6
2017-09-07T04:40:55.985Z,1002.7
2017-09-07T04:41:58.372Z,1002.7
2017-09-07T04:43:00.763Z,1002.7
2017-09-07T04:44:03.168Z,1002.7
2017-09-07T04:45:05.561Z,1002.7
2017-09-07T04:46:07.946Z,1002.8
2017-09-07T04:47:10.340Z,1002.8
2017-09-07T04:48:12.735Z,1002.8
2017-09-07T04:49:15.132Z,1002.7
2017-09-07T04:50:17.527Z,1002.7
2017-09-07T04:51:19.909Z,1002.7
2017-09-07T04:52:22.301Z,1002.7
2017-09-07T04:53:24.702Z,1002.7
2017-09-07T04:54:27.090Z,1002.8
2017-09-07T04:55:29.492Z,1002.7
2017-09-07T04:56:31.876Z,1002.7
2017-09-07T04:57:34.270Z,1002.8
2017-09-07T04:58:36.663Z,1002.8
2017-09-07T04:59:39.052Z,1002.8
2017-09-07T05:00:41.439Z,1002.8
2017-09-07T05:01:43.839Z,1002.8
2017-09-07T05:02:46.219Z,1002.8
2017-09-07T05:03:48.614Z,1002.7
2017-09-07T05:04:51.012Z,1002.8
2017-09-07T05:05:53.740Z,1002.7
2017-09-07T05:06:56.160Z,1002.7
2017-09-07T05:07:58.531Z,1002.7
2017-09-07T05:09:00.928Z,1002.8
2017-09-07T05:10:03.993Z,1002.8
2017-09-07T05:11:06.381Z,1002.8
2017-09-07T05:12:08.772Z,1002.8
2017-09-07T05:13:11.497Z,1002.8
2017-09-07T05:14:13.895Z,1002.9
2017-09-07T05:15:16.293Z,1002.9
2017-09-07T05:16:18.684Z,1002.9
2017-09-07T05:17:21.069Z,1002.9
2017-09-07T05:18:23.469Z,1002.9
2017-09-07T05:19:25.854Z,1002.9
2017-09-07T05:20:28.254Z,1002.9
2017-09-07T05:21:30.641Z,1002.9
2017-09-07T05:22:33.030Z,1002.9
2017-09-07T05:23:35.421Z,1002.9
2017-09-07T05:24:37.815Z,1002.9
2017-09-07T05:25:40.206Z,1002.9
2017-09-07T05:26:42.596Z,1002.9
2017-09-07T05:27:44.991Z,1002.9
2017-09-07T05:28:47.373Z,1002.9
2017-09-07T05:29:49.769Z,1002.8
2017-09-07T05:30:52.163Z,1002.9
2017-09-07T05:31:54.554Z,1002.8
2017-09-07T05:32:56.947Z,1002.9
2017-09-07T05:33:59.339Z,1002.8
2017-09-07T05:35:01.727Z,1002.8
2017-09-07T05:36:04.820Z,1002.9
2017-09-07T05:37:07.211Z,1002.8
2017-09-07T05:38:09.597Z,1002.8
2017-09-07T05:39:11.998Z,1002.9
2017-09-07T05:40:14.388Z,1002.9
2017-09-07T05:41:16.778Z,1002.8
2017-09-07T05:42:19.164Z,1002.9
2017-09-07T05:43:21.570Z,1002.9
2017-09-07T05:44:23.964Z,1002.9
2017-09-07T05:45:26.366Z,1002.9
2017-09-07T05:46:28.758Z,1003
2017-09-07T05:47:31.149Z,1002.9
2017-09-07T05:48:33.541Z,1002.9
2017-09-07T05:49:36.273Z,1002.9
2017-09-07T05:50:38.656Z,1002.9
2017-09-07T05:51:41.045Z,1002.9
2017-09-07T05:52:43.439Z,1002.9
2017-09-07T05:53:45.822Z,1002.9
2017-09-07T05:54:48.216Z,1002.9
2017-09-07T05:55:50.608Z,1002.9
2017-09-07T05:56:53.001Z,1002.9
2017-09-07T05:57:55.399Z,1002.9
2017-09-07T05:58:57.799Z,1002.8
2017-09-07T06:00:00.190Z,1002.9
2017-09-07T06:01:02.589Z,1002.9
2017-09-07T06:02:04.971Z,1002.9
2017-09-07T06:03:07.365Z,1003
2017-09-07T06:04:10.098Z,1002.9
2017-09-07T06:05:12.489Z,1003
2017-09-07T06:06:15.227Z,1002.9
2017-09-07T06:07:17.960Z,1003
2017-09-07T06:08:20.708Z,1003
2017-09-07T06:09:23.092Z,1002.9
2017-09-07T06:10:25.490Z,1003
2017-09-07T06:11:27.880Z,1003
2017-09-07T06:12:30.278Z,1003
2017-09-07T06:13:32.672Z,1003.1
2017-09-07T06:14:35.066Z,1003
2017-09-07T06:15:37.450Z,1003
2017-09-07T06:16:40.223Z,1003
2017-09-07T06:17:42.607Z,1003.1
2017-09-07T06:18:44.997Z,1003
2017-09-07T06:19:47.389Z,1003
2017-09-07T06:20:49.778Z,1002.9
2017-09-07T06:21:52.166Z,1003
2017-09-07T06:22:54.563Z,1002.9
2017-09-07T06:23:56.951Z,1003
2017-09-07T06:24:59.347Z,1003
2017-09-07T06:26:01.749Z,1003.1
2017-09-07T06:27:04.147Z,1003.1
2017-09-07T06:28:06.546Z,1003
2017-09-07T06:29:08.936Z,1003
2017-09-07T06:30:11.325Z,1003
2017-09-07T06:31:13.720Z,1003
2017-09-07T06:32:16.116Z,1003.1
2017-09-07T06:33:18.506Z,1003.1
2017-09-07T06:34:20.905Z,1003.1
2017-09-07T06:35:23.304Z,1003
2017-09-07T06:36:25.701Z,1003.1
2017-09-07T06:37:28.103Z,1003.1
2017-09-07T06:38:30.500Z,1003.1
2017-09-07T06:39:32.893Z,1003.1
2017-09-07T06:40:35.289Z,1003.1
2017-09-07T06:41:37.688Z,1003.1
2017-09-07T06:42:40.078Z,1003.1
2017-09-07T06:43:42.476Z,1003.1
2017-09-07T06:44:44.872Z,1003.1
2017-09-07T06:45:47.266Z,1003.1
2017-09-07T06:46:49.667Z,1003
2017-09-07T06:47:52.064Z,1003
2017-09-07T06:48:54.454Z,1003
2017-09-07T06:49:56.863Z,1003
2017-09-07T06:50:59.259Z,1002.9
2017-09-07T06:52:01.654Z,1002.9
2017-09-07T06:53:04.054Z,1003
2017-09-07T06:54:06.446Z,1002.9
2017-09-07T06:55:08.840Z,1003
2017-09-07T06:56:11.231Z,1002.9
2017-09-07T06:57:13.625Z,1002.8
2017-09-07T06:58:16.018Z,1002.8
2017-09-07T06:59:18.429Z,1002.8
2017-09-07T07:00:20.819Z,1002.8
2017-09-07T07:01:23.208Z,1002.8
2017-09-07T07:02:25.607Z,1002.9
2017-09-07T07:03:28.003Z,1002.9
2017-09-07T07:04:30.403Z,1002.8
2017-09-07T07:05:32.803Z,1002.8
2017-09-07T07:06:35.197Z,1002.8
2017-09-07T07:07:37.601Z,1002.8
2017-09-07T07:08:40.000Z,1002.8
2017-09-07T07:09:42.408Z,1002.8
2017-09-07T07:10:44.802Z,1002.8
2017-09-07T07:11:47.206Z,1002.8
2017-09-07T07:12:49.604Z,1002.9
2017-09-07T07:13:52.333Z,1002.9
2017-09-07T07:14:54.739Z,1002.9
2017-09-07T07:15:57.127Z,1002.9
2017-09-07T07:16:59.531Z,1002.9
2017-09-07T07:18:01.922Z,1002.9
2017-09-07T07:19:04.320Z,1002.9
2017-09-07T07:20:06.715Z,1002.9
2017-09-07T07:21:09.117Z,1003
2017-09-07T07:22:11.871Z,1002.9
2017-09-07T07:23:14.277Z,1003
2017-09-07T07:24:16.673Z,1003
2017-09-07T07:25:19.065Z,1003
2017-09-07T07:26:21.457Z,1003.1
2017-09-07T07:27:23.854Z,1003
2017-09-07T07:28:26.253Z,1003.1
2017-09-07T07:29:28.652Z,1003
2017-09-07T07:30:31.047Z,1003
2017-09-07T07:31:33.440Z,1003
2017-09-07T07:32:35.834Z,1003
2017-09-07T07:33:38.244Z,1003
2017-09-07T07:34:40.633Z,1003
2017-09-07T07:35:43.052Z,1003
2017-09-07T07:36:45.442Z,1003
2017-09-07T07:37:47.833Z,1003
2017-09-07T07:38:50.229Z,1003
2017-09-07T07:39:52.635Z,1003.1
2017-09-07T07:40:55.029Z,1003.1
2017-09-07T07:41:57.421Z,1003.1
2017-09-07T07:42:59.808Z,1003.2
2017-09-07T07:44:02.207Z,1003.1
2017-09-07T07:45:04.608Z,1003.1
2017-09-07T07:46:07.008Z,1003.2
2017-09-07T07:47:09.404Z,1003.2
2017-09-07T07:48:11.813Z,1003.1
2017-09-07T07:49:14.210Z,1003.2
2017-09-07T07:50:16.608Z,1003.2
2017-09-07T07:51:19.368Z,1003.2
2017-09-07T07:52:21.763Z,1003.2
2017-09-07T07:53:24.169Z,1003.1
2017-09-07T07:54:26.566Z,1003.2
2017-09-07T07:55:28.964Z,1003.2
2017-09-07T07:56:31.365Z,1003.2
2017-09-07T07:57:33.760Z,1003.1
2017-09-07T07:58:36.166Z,1003.1
2017-09-07T07:59:38.558Z,1003.1
2017-09-07T08:00:40.989Z,1003.2
2017-09-07T08:01:43.354Z,1003.1
2017-09-07T08:02:45.757Z,1003.2
2017-09-07T08:03:48.159Z,1003.2
2017-09-07T08:04:50.897Z,1003.2
2017-09-07T08:05:53.291Z,1003.2
2017-09-07T08:06:55.689Z,1003.1
2017-09-07T08:07:58.088Z,1003.3
2017-09-07T08:09:00.484Z,1003.3
2017-09-07T08:10:02.882Z,1003.3
2017-09-07T08:11:05.289Z,1003.3
2017-09-07T08:12:07.681Z,1003.3
2017-09-07T08:13:10.079Z,1003.3
2017-09-07T08:14:12.833Z,1003.3
2017-09-07T08:15:15.225Z,1003.4
2017-09-07T08:16:17.626Z,1003.4
2017-09-07T08:17:20.022Z,1003.3
2017-09-07T08:18:22.774Z,1003.3
2017-09-07T08:19:25.169Z,1003.4
2017-09-07T08:20:27.573Z,1003.4
2017-09-07T08:21:29.963Z,1003.4
2017-09-07T08:22:32.380Z,1003.4
2017-09-07T08:23:34.780Z,1003.4
2017-09-07T08:24:37.167Z,1003.4
2017-09-07T08:25:39.580Z,1003.4
2017-09-07T08:26:42.311Z,1003.5
2017-09-07T08:27:44.710Z,1003.4
2017-09-07T08:28:47.114Z,1003.4
2017-09-07T08:29:49.508Z,1003.4
2017-09-07T08:30:51.905Z,1003.4
2017-09-07T08:31:54.649Z,1003.4
2017-09-07T08:32:57.039Z,1003.4
2017-09-07T08:33:59.431Z,1003.5
2017-09-07T08:35:01.839Z,1003.4
2017-09-07T08:36:04.236Z,1003.4
2017-09-07T08:37:06.624Z,1003.5
2017-09-07T08:38:09.029Z,1003.5
2017-09-07T08:39:11.419Z,1003.5
2017-09-07T08:40:13.815Z,1003.4
2017-09-07T08:41:16.221Z,1003.4
2017-09-07T08:42:18.613Z,1003.4
2017-09-07T08:43:22.611Z,1003.4
2017-09-07T08:44:25.006Z,1003.4
2017-09-07T08:45:27.401Z,1003.3
2017-09-07T08:46:29.799Z,1003.4
2017-09-07T08:47:32.221Z,1003.4
2017-09-07T08:48:34.799Z,1003.4
2017-09-07T08:49:37.202Z,1003.3
2017-09-07T08:50:39.602Z,1003.4
2017-09-07T08:51:41.992Z,1003.4
2017-09-07T08:52:44.396Z,1003.4
2017-09-07T08:53:47.223Z,1003.4
2017-09-07T08:54:49.619Z,1003.3
2017-09-07T08:55:52.025Z,1003.3
2017-09-07T08:56:58.798Z,1003.3
2017-09-07T08:58:16.428Z,1003.4
2017-09-07T08:59:18.830Z,1003.4
2017-09-07T09:00:21.229Z,1003.4
2017-09-07T09:01:24.314Z,1003.2
2017-09-07T09:02:26.715Z,1003.3
2017-09-07T09:03:29.748Z,1003.3
2017-09-07T09:04:34.947Z,1003.3
2017-09-07T09:05:41.003Z,1003.4
2017-09-07T09:06:56.857Z,1003.4
2017-09-07T09:08:05.067Z,1003.4
2017-09-07T09:09:11.791Z,1003.4
2017-09-07T09:10:14.189Z,1003.3
2017-09-07T09:11:16.593Z,1003.4
2017-09-07T09:12:18.992Z,1003.3
2017-09-07T09:13:21.415Z,1003.3
2017-09-07T09:14:26.903Z,1003.4
2017-09-07T09:15:29.476Z,1003.3
2017-09-07T09:16:31.900Z,1003.3
2017-09-07T09:17:34.297Z,1003.3
2017-09-07T09:18:36.699Z,1003.4
2017-09-07T09:19:39.116Z,1003.4
2017-09-07T09:20:41.512Z,1003.3
2017-09-07T09:21:43.912Z,1003.3
2017-09-07T09:22:46.304Z,1003.3
2017-09-07T09:23:48.699Z,1003.3
2017-09-07T09:24:51.095Z,1003.3
2017-09-07T09:25:53.494Z,1003.4
2017-09-07T09:26:56.230Z,1003.4
2017-09-07T09:27:58.651Z,1003.4
2017-09-07T09:29:01.052Z,1003.3
2017-09-07T09:30:03.458Z,1003.3
2017-09-07T09:31:06.194Z,1003.4
2017-09-07T09:32:08.597Z,1003.3
2017-09-07T09:33:10.995Z,1003.4
2017-09-07T09:34:13.390Z,1003.3
2017-09-07T09:35:15.786Z,1003.3
2017-09-07T09:36:18.189Z,1003.3
2017-09-07T09:37:21.632Z,1003.3
2017-09-07T09:38:33.410Z,1003.2
2017-09-07T09:39:36.131Z,1003.3
2017-09-07T09:40:38.531Z,1003.3
2017-09-07T09:41:40.928Z,1003.4
2017-09-07T09:42:43.328Z,1003.3
2017-09-07T09:43:45.730Z,1003.3
2017-09-07T09:44:48.125Z,1003.3
2017-09-07T09:45:50.621Z,1003.3
2017-09-07T09:46:53.028Z,1003.3
2017-09-07T09:47:55.757Z,1003.3
2017-09-07T09:48:58.160Z,1003.3
2017-09-07T09:50:00.893Z,1003.3
2017-09-07T09:51:03.284Z,1003.3
2017-09-07T09:52:05.693Z,1003.2
2017-09-07T09:53:08.091Z,1003.3
2017-09-07T09:54:10.817Z,1003.3
2017-09-07T09:55:13.216Z,1003.2
2017-09-07T09:56:15.621Z,1003.3
2017-09-07T09:57:18.021Z,1003.2
2017-09-07T09:58:20.418Z,1003.2
2017-09-07T09:59:22.810Z,1003.2
2017-09-07T10:00:25.549Z,1003
2017-09-07T10:01:27.958Z,1003
2017-09-07T10:02:30.351Z,1003
2017-09-07T10:03:32.753Z,1003.1
2017-09-07T10:04:35.156Z,1003
2017-09-07T10:05:37.547Z,1003.1
2017-09-07T10:06:39.947Z,1003.1
2017-09-07T10:07:42.347Z,1003
2017-09-07T10:08:44.747Z,1003.1
2017-09-07T10:09:47.167Z,1003
2017-09-07T10:10:49.558Z,1003
2017-09-07T10:11:51.964Z,1003.1
2017-09-07T10:12:54.365Z,1003
2017-09-07T10:13:56.764Z,1003
2017-09-07T10:14:59.169Z,1002.9
2017-09-07T10:16:01.562Z,1003
2017-09-07T10:17:03.971Z,1003.1
2017-09-07T10:18:06.370Z,1003
2017-09-07T10:19:08.772Z,1003.1
2017-09-07T10:20:11.172Z,1003
2017-09-07T10:21:13.570Z,1003
2017-09-07T10:22:15.970Z,1003
2017-09-07T10:23:18.375Z,1003
2017-09-07T10:24:20.781Z,1003
2017-09-07T10:25:23.174Z,1003
2017-09-07T10:26:25.580Z,1003
2017-09-07T10:27:27.979Z,1003
2017-09-07T10:28:30.380Z,1003.1
2017-09-07T10:29:32.777Z,1003
2017-09-07T10:30:35.179Z,1003
2017-09-07T10:31:37.583Z,1003.1
2017-09-07T10:32:39.990Z,1003.1
2017-09-07T10:33:42.394Z,1003.1
2017-09-07T10:34:45.130Z,1003.1
2017-09-07T10:35:47.529Z,1003.1
2017-09-07T10:36:49.922Z,1003.1
2017-09-07T10:37:52.322Z,1003.1
2017-09-07T10:38:54.723Z,1003.1
2017-09-07T10:39:57.126Z,1003.2
2017-09-07T10:40:59.527Z,1003.1
2017-09-07T10:42:01.936Z,1003.1
2017-09-07T10:43:04.336Z,1003
2017-09-07T10:44:06.747Z,1003.1
2017-09-07T10:45:09.148Z,1002.9
2017-09-07T10:46:11.545Z,1003
2017-09-07T10:47:13.945Z,1003
2017-09-07T10:48:16.347Z,1003
2017-09-07T10:49:18.751Z,1002.9
2017-09-07T10:50:21.155Z,1003
2017-09-07T10:51:23.545Z,1002.9
2017-09-07T10:52:25.955Z,1002.9
2017-09-07T10:53:28.355Z,1002.9
2017-09-07T10:54:30.754Z,1002.9
2017-09-07T10:55:33.159Z,1002.9
2017-09-07T10:56:35.561Z,1002.8
2017-09-07T10:57:37.958Z,1002.8
2017-09-07T10:58:40.367Z,1002.8
2017-09-07T10:59:42.763Z,1002.8
2017-09-07T11:00:45.165Z,1002.8
2017-09-07T11:01:47.568Z,1002.8
2017-09-07T11:02:49.970Z,1002.8
2017-09-07T11:03:52.371Z,1002.8
2017-09-07T11:04:54.775Z,1002.9
2017-09-07T11:05:57.177Z,1002.8
2017-09-07T11:06:59.579Z,1002.9
2017-09-07T11:08:01.976Z,1002.9
2017-09-07T11:09:04.382Z,1003
2017-09-07T11:10:06.794Z,1002.9
2017-09-07T11:11:09.205Z,1002.9
2017-09-07T11:12:11.606Z,1002.8
2017-09-07T11:13:14.012Z,1002.8
2017-09-07T11:14:16.419Z,1002.8
2017-09-07T11:15:18.825Z,1002.8
2017-09-07T11:16:21.225Z,1002.9
2017-09-07T11:17:23.957Z,1002.9
2017-09-07T11:18:26.361Z,1002.8
2017-09-07T11:19:28.778Z,1002.8
2017-09-07T11:20:31.516Z,1002.9
2017-09-07T11:21:34.260Z,1002.8
2017-09-07T11:22:36.661Z,1002.8
2017-09-07T11:23:39.063Z,1002.8
2017-09-07T11:24:41.480Z,1002.8
2017-09-07T11:25:44.223Z,1002.9
2017-09-07T11:26:46.617Z,1002.8
2017-09-07T11:27:49.023Z,1002.9
2017-09-07T11:28:51.765Z,1002.8
2017-09-07T11:29:54.505Z,1002.8
2017-09-07T11:30:56.906Z,1002.8
2017-09-07T11:31:59.642Z,1002.7
2017-09-07T11:33:02.043Z,1002.8
2017-09-07T11:34:04.459Z,1002.8
2017-09-07T11:35:06.866Z,1002.7
2017-09-07T11:36:09.592Z,1002.8
2017-09-07T11:37:11.999Z,1002.8
2017-09-07T11:38:14.407Z,1002.8
2017-09-07T11:39:16.800Z,1002.7
2017-09-07T11:40:19.209Z,1002.7
2017-09-07T11:41:21.615Z,1002.7
2017-09-07T11:42:24.012Z,1002.7
2017-09-07T11:43:26.778Z,1002.7
2017-09-07T11:44:29.184Z,1002.6
2017-09-07T11:45:31.578Z,1002.7
2017-09-07T11:46:33.990Z,1002.8
2017-09-07T11:47:36.394Z,1002.7
2017-09-07T11:48:38.800Z,1002.6
2017-09-07T11:49:41.214Z,1002.6
2017-09-07T11:50:43.607Z,1002.6
2017-09-07T11:51:46.017Z,1002.7
2017-09-07T11:52:48.426Z,1002.7
2017-09-07T11:53:50.825Z,1002.7
2017-09-07T11:54:53.236Z,1002.7
2017-09-07T11:55:55.646Z,1002.7
2017-09-07T11:56:58.047Z,1002.7
2017-09-07T11:58:00.464Z,1002.7
2017-09-07T11:59:02.916Z,1002.7
2017-09-07T12:00:05.706Z,1002.6
2017-09-07T12:01:08.121Z,1002.7
2017-09-07T12:02:10.526Z,1002.8
2017-09-07T12:03:12.924Z,1002.8
2017-09-07T12:04:15.328Z,1002.8
2017-09-07T12:05:17.743Z,1002.8
2017-09-07T12:06:20.152Z,1002.8
2017-09-07T12:07:22.559Z,1002.8
2017-09-07T12:08:24.968Z,1002.8
2017-09-07T12:09:27.370Z,1002.8
2017-09-07T12:10:29.777Z,1002.8
2017-09-07T12:11:32.179Z,1002.8
2017-09-07T12:12:34.582Z,1002.8
2017-09-07T12:13:36.986Z,1002.8
2017-09-07T12:14:39.731Z,1002.9
2017-09-07T12:15:42.134Z,1002.8
2017-09-07T12:16:44.540Z,1002.9
2017-09-07T12:17:46.938Z,1002.9
2017-09-07T12:18:49.345Z,1002.9
2017-09-07T12:19:51.748Z,1003
2017-09-07T12:20:54.150Z,1002.9
2017-09-07T12:21:56.548Z,1002.9
2017-09-07T12:22:59.290Z,1003
2017-09-07T12:24:01.690Z,1003
2017-09-07T12:25:04.096Z,1002.9
2017-09-07T12:26:06.505Z,1003
2017-09-07T12:27:08.909Z,1002.9
2017-09-07T12:28:11.312Z,1002.9
2017-09-07T12:29:13.717Z,1002.9
2017-09-07T12:30:16.116Z,1002.9
2017-09-07T12:31:18.522Z,1002.9
2017-09-07T12:32:20.918Z,1002.9
2017-09-07T12:33:23.320Z,1002.9
2017-09-07T12:34:25.720Z,1002.9
2017-09-07T12:35:28.123Z,1002.9
2017-09-07T12:36:30.563Z,1002.9
2017-09-07T12:37:32.938Z,1002.8
2017-09-07T12:38:35.337Z,1002.9
2017-09-07T12:39:37.745Z,1002.9
2017-09-07T12:40:40.490Z,1002.8
2017-09-07T12:41:42.888Z,1002.8
2017-09-07T12:42:45.290Z,1002.8
2017-09-07T12:43:47.690Z,1002.8
2017-09-07T12:44:50.433Z,1002.8
2017-09-07T12:45:52.882Z,1002.8
2017-09-07T12:46:55.572Z,1002.8
2017-09-07T12:47:57.961Z,1002.7
2017-09-07T12:49:00.379Z,1002.8
2017-09-07T12:50:02.769Z,1002.8
2017-09-07T12:51:05.173Z,1002.7
2017-09-07T12:52:07.586Z,1002.7
2017-09-07T12:53:09.983Z,1002.8
2017-09-07T12:54:12.389Z,1002.7
2017-09-07T12:55:14.791Z,1002.7
2017-09-07T12:56:17.191Z,1002.7
2017-09-07T12:57:19.599Z,1002.7
2017-09-07T12:58:22.000Z,1002.7
2017-09-07T12:59:24.738Z,1002.7
2017-09-07T13:00:27.141Z,1002.8
2017-09-07T13:01:29.545Z,1002.7
2017-09-07T13:02:31.944Z,1002.7
2017-09-07T13:03:34.339Z,1002.7
2017-09-07T13:04:36.750Z,1002.7
2017-09-07T13:05:39.161Z,1002.6
2017-09-07T13:06:42.247Z,1002.6